sensor_id;sensor_type;location;lat;lon;timestamp;temperature;humidity
67050;DHT22;53955;52.442;13.284;2023-03-16T00:02:02;5.00;58.70
67050;DHT22;53955;52.442;13.284;2023-03-16T00:04:29;4.90;58.90
67050;DHT22;53955;52.442;13.284;2023-03-16T00:06:56;4.80;59.80
67050;DHT22;53955;52.442;13.284;2023-03-16T00:09:22;4.70;59.30
67050;DHT22;53955;52.442;13.284;2023-03-16T00:11:55;4.80;59.60
67050;DHT22;53955;52.442;13.284;2023-03-16T00:14:21;4.90;59.20
67050;DHT22;53955;52.442;13.284;2023-03-16T00:16:49;4.80;58.70
67050;DHT22;53955;52.442;13.284;2023-03-16T00:19:16;4.70;59.10
67050;DHT22;53955;52.442;13.284;2023-03-16T00:21:42;4.60;59.40
67050;DHT22;53955;52.442;13.284;2023-03-16T00:24:09;4.70;59.00
67050;DHT22;53955;52.442;13.284;2023-03-16T00:26:37;4.60;58.20
67050;DHT22;53955;52.442;13.284;2023-03-16T00:29:03;4.70;58.90
67050;DHT22;53955;52.442;13.284;2023-03-16T00:31:30;4.50;59.10
67050;DHT22;53955;52.442;13.284;2023-03-16T00:33:59;4.60;59.20
67050;DHT22;53955;52.442;13.284;2023-03-16T00:36:27;4.50;59.00
67050;DHT22;53955;52.442;13.284;2023-03-16T00:38:53;4.70;59.10
67050;DHT22;53955;52.442;13.284;2023-03-16T00:41:20;4.50;59.70
67050;DHT22;53955;52.442;13.284;2023-03-16T00:43:47;4.70;59.10
67050;DHT22;53955;52.442;13.284;2023-03-16T00:46:16;4.70;58.80
67050;DHT22;53955;52.442;13.284;2023-03-16T00:48:45;4.50;58.60
67050;DHT22;53955;52.442;13.284;2023-03-16T00:51:15;4.50;59.00
67050;DHT22;53955;52.442;13.284;2023-03-16T00:53:43;4.30;58.80
67050;DHT22;53955;52.442;13.284;2023-03-16T00:56:11;4.40;59.30
67050;DHT22;53955;52.442;13.284;2023-03-16T00:58:39;4.30;59.30
67050;DHT22;53955;52.442;13.284;2023-03-16T01:01:09;4.40;59.60
67050;DHT22;53955;52.442;13.284;2023-03-16T01:03:36;4.40;59.20
67050;DHT22;53955;52.442;13.284;2023-03-16T01:06:03;4.30;59.00
67050;DHT22;53955;52.442;13.284;2023-03-16T01:08:32;4.30;59.50
67050;DHT22;53955;52.442;13.284;2023-03-16T01:11:02;4.50;59.20
67050;DHT22;53955;52.442;13.284;2023-03-16T01:13:29;4.30;59.20
67050;DHT22;53955;52.442;13.284;2023-03-16T01:15:57;4.40;59.10
67050;DHT22;53955;52.442;13.284;2023-03-16T01:18:23;4.20;59.20
67050;DHT22;53955;52.442;13.284;2023-03-16T01:20:50;4.40;59.50
67050;DHT22;53955;52.442;13.284;2023-03-16T01:23:18;4.30;59.10
67050;DHT22;53955;52.442;13.284;2023-03-16T01:25:46;4.30;58.50
67050;DHT22;53955;52.442;13.284;2023-03-16T01:28:18;4.30;59.40
67050;DHT22;53955;52.442;13.284;2023-03-16T01:30:44;4.20;59.20
67050;DHT22;53955;52.442;13.284;2023-03-16T01:33:11;4.30;58.70
67050;DHT22;53955;52.442;13.284;2023-03-16T01:35:37;4.30;58.90
67050;DHT22;53955;52.442;13.284;2023-03-16T01:38:04;4.30;58.80
67050;DHT22;53955;52.442;13.284;2023-03-16T01:40:31;4.40;58.70
67050;DHT22;53955;52.442;13.284;2023-03-16T01:43:01;4.30;59.50
67050;DHT22;53955;52.442;13.284;2023-03-16T01:46:09;4.10;59.00
67050;DHT22;53955;52.442;13.284;2023-03-16T01:48:46;4.30;58.60
67050;DHT22;53955;52.442;13.284;2023-03-16T01:51:16;4.30;59.10
67050;DHT22;53955;52.442;13.284;2023-03-16T01:53:46;4.10;59.00
67050;DHT22;53955;52.442;13.284;2023-03-16T01:56:17;4.20;58.90
67050;DHT22;53955;52.442;13.284;2023-03-16T01:58:46;4.20;58.10
67050;DHT22;53955;52.442;13.284;2023-03-16T02:01:13;4.20;59.10
67050;DHT22;53955;52.442;13.284;2023-03-16T02:03:40;4.10;59.20
67050;DHT22;53955;52.442;13.284;2023-03-16T02:06:11;4.20;58.80
67050;DHT22;53955;52.442;13.284;2023-03-16T02:08:39;4.20;58.80
67050;DHT22;53955;52.442;13.284;2023-03-16T02:11:08;4.20;58.60
67050;DHT22;53955;52.442;13.284;2023-03-16T02:13:35;4.20;58.40
67050;DHT22;53955;52.442;13.284;2023-03-16T02:16:05;4.30;58.40
67050;DHT22;53955;52.442;13.284;2023-03-16T02:18:32;4.10;58.60
67050;DHT22;53955;52.442;13.284;2023-03-16T02:21:04;4.00;58.80
67050;DHT22;53955;52.442;13.284;2023-03-16T02:23:32;4.00;58.60
67050;DHT22;53955;52.442;13.284;2023-03-16T02:26:02;4.00;58.50
67050;DHT22;53955;52.442;13.284;2023-03-16T02:28:33;4.20;58.70
67050;DHT22;53955;52.442;13.284;2023-03-16T02:31:04;3.90;59.00
67050;DHT22;53955;52.442;13.284;2023-03-16T02:33:31;3.90;59.30
67050;DHT22;53955;52.442;13.284;2023-03-16T02:35:59;3.80;59.40
67050;DHT22;53955;52.442;13.284;2023-03-16T02:38:25;4.10;58.90
67050;DHT22;53955;52.442;13.284;2023-03-16T02:40:57;3.80;58.40
67050;DHT22;53955;52.442;13.284;2023-03-16T02:43:27;3.90;59.20
67050;DHT22;53955;52.442;13.284;2023-03-16T02:45:59;3.80;59.10
67050;DHT22;53955;52.442;13.284;2023-03-16T02:48:32;4.00;58.90
67050;DHT22;53955;52.442;13.284;2023-03-16T02:51:00;3.90;59.50
67050;DHT22;53955;52.442;13.284;2023-03-16T02:53:27;4.00;58.90
67050;DHT22;53955;52.442;13.284;2023-03-16T02:55:53;3.90;58.80
67050;DHT22;53955;52.442;13.284;2023-03-16T02:58:20;3.70;59.10
67050;DHT22;53955;52.442;13.284;2023-03-16T03:00:46;3.80;59.30
67050;DHT22;53955;52.442;13.284;2023-03-16T03:03:13;3.90;59.20
67050;DHT22;53955;52.442;13.284;2023-03-16T03:05:41;3.80;58.80
67050;DHT22;53955;52.442;13.284;2023-03-16T03:08:07;3.80;59.10
67050;DHT22;53955;52.442;13.284;2023-03-16T03:10:34;3.80;58.80
67050;DHT22;53955;52.442;13.284;2023-03-16T03:13:00;3.90;59.70
67050;DHT22;53955;52.442;13.284;2023-03-16T03:15:27;3.80;58.10
67050;DHT22;53955;52.442;13.284;2023-03-16T03:17:54;3.70;58.40
67050;DHT22;53955;52.442;13.284;2023-03-16T03:20:20;3.70;58.60
67050;DHT22;53955;52.442;13.284;2023-03-16T03:22:49;3.80;59.40
67050;DHT22;53955;52.442;13.284;2023-03-16T03:25:17;3.60;59.80
67050;DHT22;53955;52.442;13.284;2023-03-16T03:27:45;3.50;59.20
67050;DHT22;53955;52.442;13.284;2023-03-16T03:30:15;3.60;59.20
67050;DHT22;53955;52.442;13.284;2023-03-16T03:32:42;3.70;59.50
67050;DHT22;53955;52.442;13.284;2023-03-16T03:35:10;3.60;59.70
67050;DHT22;53955;52.442;13.284;2023-03-16T03:37:37;3.60;58.90
67050;DHT22;53955;52.442;13.284;2023-03-16T03:40:09;3.60;59.40
67050;DHT22;53955;52.442;13.284;2023-03-16T03:42:36;3.70;58.80
67050;DHT22;53955;52.442;13.284;2023-03-16T03:45:03;3.70;58.30
67050;DHT22;53955;52.442;13.284;2023-03-16T03:47:30;3.50;59.20
67050;DHT22;53955;52.442;13.284;2023-03-16T03:49:57;3.50;59.00
67050;DHT22;53955;52.442;13.284;2023-03-16T03:52:23;3.50;58.90
67050;DHT22;53955;52.442;13.284;2023-03-16T03:54:50;3.50;59.00
67050;DHT22;53955;52.442;13.284;2023-03-16T03:57:18;3.30;59.30
67050;DHT22;53955;52.442;13.284;2023-03-16T03:59:44;3.30;59.10
67050;DHT22;53955;52.442;13.284;2023-03-16T04:02:12;3.60;59.30
67050;DHT22;53955;52.442;13.284;2023-03-16T04:04:40;3.20;59.20
67050;DHT22;53955;52.442;13.284;2023-03-16T04:07:06;3.40;59.70
67050;DHT22;53955;52.442;13.284;2023-03-16T04:09:33;3.20;59.60
67050;DHT22;53955;52.442;13.284;2023-03-16T04:12:01;3.60;59.40
67050;DHT22;53955;52.442;13.284;2023-03-16T04:14:29;3.40;59.70
67050;DHT22;53955;52.442;13.284;2023-03-16T04:16:56;3.30;59.40
67050;DHT22;53955;52.442;13.284;2023-03-16T04:19:23;3.50;59.70
67050;DHT22;53955;52.442;13.284;2023-03-16T04:21:50;3.40;59.90
67050;DHT22;53955;52.442;13.284;2023-03-16T04:24:18;3.30;59.80
67050;DHT22;53955;52.442;13.284;2023-03-16T04:26:45;3.50;70.10
67050;DHT22;53955;52.442;13.284;2023-03-16T04:29:11;3.90;59.10
67050;DHT22;53955;52.442;13.284;2023-03-16T04:31:40;3.80;58.10
67050;DHT22;53955;52.442;13.284;2023-03-16T04:34:07;3.60;58.40
67050;DHT22;53955;52.442;13.284;2023-03-16T04:36:34;3.60;59.30
67050;DHT22;53955;52.442;13.284;2023-03-16T04:39:00;3.30;59.10
67050;DHT22;53955;52.442;13.284;2023-03-16T04:41:28;3.30;58.80
67050;DHT22;53955;52.442;13.284;2023-03-16T04:43:55;3.60;59.20
67050;DHT22;53955;52.442;13.284;2023-03-16T04:46:22;3.30;59.10
67050;DHT22;53955;52.442;13.284;2023-03-16T04:48:52;3.40;59.30
67050;DHT22;53955;52.442;13.284;2023-03-16T04:51:22;3.20;59.60
67050;DHT22;53955;52.442;13.284;2023-03-16T04:53:49;3.30;59.70
67050;DHT22;53955;52.442;13.284;2023-03-16T04:56:15;3.20;59.80
67050;DHT22;53955;52.442;13.284;2023-03-16T04:58:43;3.20;60.00
67050;DHT22;53955;52.442;13.284;2023-03-16T05:01:10;3.10;60.20
67050;DHT22;53955;52.442;13.284;2023-03-16T05:03:37;3.20;59.70
67050;DHT22;53955;52.442;13.284;2023-03-16T05:06:05;3.20;60.40
67050;DHT22;53955;52.442;13.284;2023-03-16T05:08:32;3.30;59.60
67050;DHT22;53955;52.442;13.284;2023-03-16T05:10:58;3.20;59.60
67050;DHT22;53955;52.442;13.284;2023-03-16T05:13:25;3.20;59.30
67050;DHT22;53955;52.442;13.284;2023-03-16T05:15:52;3.10;59.10
67050;DHT22;53955;52.442;13.284;2023-03-16T05:18:19;3.10;59.80
67050;DHT22;53955;52.442;13.284;2023-03-16T05:20:49;3.00;59.70
67050;DHT22;53955;52.442;13.284;2023-03-16T05:23:17;3.10;60.10
67050;DHT22;53955;52.442;13.284;2023-03-16T05:25:45;3.30;59.60
67050;DHT22;53955;52.442;13.284;2023-03-16T05:28:11;3.40;59.50
67050;DHT22;53955;52.442;13.284;2023-03-16T05:30:39;3.40;58.80
67050;DHT22;53955;52.442;13.284;2023-03-16T05:33:06;3.40;58.80
67050;DHT22;53955;52.442;13.284;2023-03-16T05:35:33;3.50;58.10
67050;DHT22;53955;52.442;13.284;2023-03-16T05:38:00;3.80;58.10
67050;DHT22;53955;52.442;13.284;2023-03-16T05:40:28;3.60;57.60
67050;DHT22;53955;52.442;13.284;2023-03-16T05:42:55;3.50;58.20
67050;DHT22;53955;52.442;13.284;2023-03-16T05:45:23;3.60;57.50
67050;DHT22;53955;52.442;13.284;2023-03-16T05:47:49;3.70;56.60
67050;DHT22;53955;52.442;13.284;2023-03-16T05:50:18;3.80;56.60
67050;DHT22;53955;52.442;13.284;2023-03-16T05:52:45;3.70;57.10
67050;DHT22;53955;52.442;13.284;2023-03-16T05:55:14;3.60;56.80
67050;DHT22;53955;52.442;13.284;2023-03-16T05:57:42;3.50;57.20
67050;DHT22;53955;52.442;13.284;2023-03-16T06:00:11;3.60;57.50
67050;DHT22;53955;52.442;13.284;2023-03-16T06:02:39;3.80;56.90
67050;DHT22;53955;52.442;13.284;2023-03-16T06:05:06;3.70;57.60
67050;DHT22;53955;52.442;13.284;2023-03-16T06:07:33;3.80;56.60
67050;DHT22;53955;52.442;13.284;2023-03-16T06:10:00;4.30;55.90
67050;DHT22;53955;52.442;13.284;2023-03-16T06:12:27;6.30;51.20
67050;DHT22;53955;52.442;13.284;2023-03-16T06:14:55;9.00;45.00
67050;DHT22;53955;52.442;13.284;2023-03-16T06:17:21;11.80;38.50
67050;DHT22;53955;52.442;13.284;2023-03-16T06:19:48;13.50;33.50
67050;DHT22;53955;52.442;13.284;2023-03-16T06:22:15;14.80;31.20
67050;DHT22;53955;52.442;13.284;2023-03-16T06:24:42;16.30;27.20
67050;DHT22;53955;52.442;13.284;2023-03-16T06:27:09;17.60;24.90
67050;DHT22;53955;52.442;13.284;2023-03-16T06:29:35;18.40;22.40
67050;DHT22;53955;52.442;13.284;2023-03-16T06:32:04;19.00;21.40
67050;DHT22;53955;52.442;13.284;2023-03-16T06:34:30;19.40;21.20
67050;DHT22;53955;52.442;13.284;2023-03-16T06:36:58;20.10;19.50
67050;DHT22;53955;52.442;13.284;2023-03-16T06:39:25;20.50;19.20
67050;DHT22;53955;52.442;13.284;2023-03-16T06:41:51;22.10;15.80
67050;DHT22;53955;52.442;13.284;2023-03-16T06:44:18;21.70;15.70
67050;DHT22;53955;52.442;13.284;2023-03-16T06:46:45;21.60;15.40
67050;DHT22;53955;52.442;13.284;2023-03-16T06:49:13;22.00;14.80
67050;DHT22;53955;52.442;13.284;2023-03-16T06:51:39;23.10;13.90
67050;DHT22;53955;52.442;13.284;2023-03-16T06:54:07;23.00;13.80
67050;DHT22;53955;52.442;13.284;2023-03-16T06:56:33;23.50;13.10
67050;DHT22;53955;52.442;13.284;2023-03-16T06:59:00;23.50;13.10
67050;DHT22;53955;52.442;13.284;2023-03-16T07:01:26;24.20;12.00
67050;DHT22;53955;52.442;13.284;2023-03-16T07:03:54;24.30;12.10
67050;DHT22;53955;52.442;13.284;2023-03-16T07:06:22;24.40;11.40
67050;DHT22;53955;52.442;13.284;2023-03-16T07:08:48;24.80;10.80
67050;DHT22;53955;52.442;13.284;2023-03-16T07:11:15;24.80;10.70
67050;DHT22;53955;52.442;13.284;2023-03-16T07:13:42;25.20;10.30
67050;DHT22;53955;52.442;13.284;2023-03-16T07:16:09;25.20;10.00
67050;DHT22;53955;52.442;13.284;2023-03-16T07:18:35;25.30;10.60
67050;DHT22;53955;52.442;13.284;2023-03-16T07:21:04;26.40;9.40
67050;DHT22;53955;52.442;13.284;2023-03-16T07:23:32;26.60;9.30
67050;DHT22;53955;52.442;13.284;2023-03-16T07:25:59;27.70;8.50
67050;DHT22;53955;52.442;13.284;2023-03-16T07:28:26;27.40;8.10
67050;DHT22;53955;52.442;13.284;2023-03-16T07:30:54;27.90;7.40
67050;DHT22;53955;52.442;13.284;2023-03-16T07:33:20;27.20;8.30
67050;DHT22;53955;52.442;13.284;2023-03-16T07:35:47;27.60;7.80
67050;DHT22;53955;52.442;13.284;2023-03-16T07:38:13;28.00;7.70
67050;DHT22;53955;52.442;13.284;2023-03-16T07:40:41;28.40;7.40
67050;DHT22;53955;52.442;13.284;2023-03-16T07:43:08;28.90;6.70
67050;DHT22;53955;52.442;13.284;2023-03-16T07:45:34;29.80;6.50
67050;DHT22;53955;52.442;13.284;2023-03-16T07:48:01;29.10;5.40
67050;DHT22;53955;52.442;13.284;2023-03-16T07:50:27;28.50;6.20
67050;DHT22;53955;52.442;13.284;2023-03-16T07:52:54;28.50;6.50
67050;DHT22;53955;52.442;13.284;2023-03-16T07:55:20;27.90;6.90
67050;DHT22;53955;52.442;13.284;2023-03-16T07:57:49;27.20;7.20
67050;DHT22;53955;52.442;13.284;2023-03-16T08:00:16;27.20;6.80
67050;DHT22;53955;52.442;13.284;2023-03-16T08:02:48;25.90;6.80
67050;DHT22;53955;52.442;13.284;2023-03-16T08:05:15;26.50;7.30
67050;DHT22;53955;52.442;13.284;2023-03-16T08:07:41;27.20;6.70
67050;DHT22;53955;52.442;13.284;2023-03-16T08:10:09;27.40;6.60
67050;DHT22;53955;52.442;13.284;2023-03-16T08:12:36;28.30;5.80
67050;DHT22;53955;52.442;13.284;2023-03-16T08:15:05;27.70;5.80
67050;DHT22;53955;52.442;13.284;2023-03-16T08:17:32;27.40;6.30
67050;DHT22;53955;52.442;13.284;2023-03-16T08:19:58;27.90;5.50
67050;DHT22;53955;52.442;13.284;2023-03-16T08:22:25;28.00;5.00
67050;DHT22;53955;52.442;13.284;2023-03-16T08:24:52;28.60;4.80
67050;DHT22;53955;52.442;13.284;2023-03-16T08:27:18;28.20;5.30
67050;DHT22;53955;52.442;13.284;2023-03-16T08:29:50;29.10;4.50
67050;DHT22;53955;52.442;13.284;2023-03-16T08:32:18;30.60;3.20
67050;DHT22;53955;52.442;13.284;2023-03-16T08:34:44;31.30;3.40
67050;DHT22;53955;52.442;13.284;2023-03-16T08:37:12;30.80;3.40
67050;DHT22;53955;52.442;13.284;2023-03-16T08:39:40;30.10;2.90
67050;DHT22;53955;52.442;13.284;2023-03-16T08:42:08;29.20;3.40
67050;DHT22;53955;52.442;13.284;2023-03-16T08:44:35;29.60;3.70
67050;DHT22;53955;52.442;13.284;2023-03-16T08:47:02;29.30;3.10
67050;DHT22;53955;52.442;13.284;2023-03-16T08:49:30;27.50;3.70
67050;DHT22;53955;52.442;13.284;2023-03-16T08:51:57;26.30;4.50
67050;DHT22;53955;52.442;13.284;2023-03-16T08:54:25;26.10;4.10
67050;DHT22;53955;52.442;13.284;2023-03-16T08:56:51;25.60;4.80
67050;DHT22;53955;52.442;13.284;2023-03-16T08:59:18;25.20;3.90
67050;DHT22;53955;52.442;13.284;2023-03-16T09:01:44;24.70;5.10
67050;DHT22;53955;52.442;13.284;2023-03-16T09:04:12;23.80;5.50
67050;DHT22;53955;52.442;13.284;2023-03-16T09:06:40;23.00;5.30
67050;DHT22;53955;52.442;13.284;2023-03-16T09:09:07;22.30;6.20
67050;DHT22;53955;52.442;13.284;2023-03-16T09:11:34;21.50;7.70
67050;DHT22;53955;52.442;13.284;2023-03-16T09:14:01;20.50;10.20
67050;DHT22;53955;52.442;13.284;2023-03-16T09:16:28;20.00;9.70
67050;DHT22;53955;52.442;13.284;2023-03-16T09:18:55;19.50;10.70
67050;DHT22;53955;52.442;13.284;2023-03-16T09:21:22;19.20;10.60
67050;DHT22;53955;52.442;13.284;2023-03-16T09:23:51;19.00;11.00
67050;DHT22;53955;52.442;13.284;2023-03-16T09:26:19;18.60;11.40
67050;DHT22;53955;52.442;13.284;2023-03-16T09:28:46;18.20;11.70
67050;DHT22;53955;52.442;13.284;2023-03-16T09:31:16;17.90;12.40
67050;DHT22;53955;52.442;13.284;2023-03-16T09:33:43;17.30;13.60
67050;DHT22;53955;52.442;13.284;2023-03-16T09:36:10;16.80;14.30
67050;DHT22;53955;52.442;13.284;2023-03-16T09:38:37;16.50;14.90
67050;DHT22;53955;52.442;13.284;2023-03-16T09:41:09;16.20;14.60
67050;DHT22;53955;52.442;13.284;2023-03-16T09:46:33;15.20;16.90
67050;DHT22;53955;52.442;13.284;2023-03-16T09:49:00;14.50;17.40
67050;DHT22;53955;52.442;13.284;2023-03-16T09:51:33;14.00;17.80
67050;DHT22;53955;52.442;13.284;2023-03-16T09:54:01;13.90;18.90
67050;DHT22;53955;52.442;13.284;2023-03-16T09:56:34;13.90;18.70
67050;DHT22;53955;52.442;13.284;2023-03-16T09:59:05;13.70;18.20
67050;DHT22;53955;52.442;13.284;2023-03-16T10:01:36;13.60;19.70
67050;DHT22;53955;52.442;13.284;2023-03-16T10:04:08;13.70;19.50
67050;DHT22;53955;52.442;13.284;2023-03-16T10:06:37;13.80;19.10
67050;DHT22;53955;52.442;13.284;2023-03-16T10:09:12;13.80;18.80
67050;DHT22;53955;52.442;13.284;2023-03-16T10:11:42;14.00;18.80
67050;DHT22;53955;52.442;13.284;2023-03-16T10:14:14;13.80;18.30
67050;DHT22;53955;52.442;13.284;2023-03-16T10:16:46;13.70;19.30
67050;DHT22;53955;52.442;13.284;2023-03-16T10:19:17;13.70;19.20
67050;DHT22;53955;52.442;13.284;2023-03-16T10:21:46;13.80;19.70
67050;DHT22;53955;52.442;13.284;2023-03-16T10:24:23;13.80;18.50
67050;DHT22;53955;52.442;13.284;2023-03-16T10:26:56;13.90;18.30
67050;DHT22;53955;52.442;13.284;2023-03-16T10:29:24;14.00;18.60
67050;DHT22;53955;52.442;13.284;2023-03-16T10:31:53;14.00;18.30
67050;DHT22;53955;52.442;13.284;2023-03-16T10:34:20;14.00;17.50
67050;DHT22;53955;52.442;13.284;2023-03-16T10:36:48;13.80;19.50
67050;DHT22;53955;52.442;13.284;2023-03-16T10:39:15;13.70;18.80
67050;DHT22;53955;52.442;13.284;2023-03-16T10:41:43;13.60;19.30
67050;DHT22;53955;52.442;13.284;2023-03-16T10:44:12;13.40;18.10
67050;DHT22;53955;52.442;13.284;2023-03-16T10:46:40;13.70;18.70
67050;DHT22;53955;52.442;13.284;2023-03-16T10:49:20;13.80;18.20
67050;DHT22;53955;52.442;13.284;2023-03-16T10:51:47;14.00;15.40
67050;DHT22;53955;52.442;13.284;2023-03-16T10:54:17;14.00;16.50
67050;DHT22;53955;52.442;13.284;2023-03-16T10:56:44;14.00;17.80
67050;DHT22;53955;52.442;13.284;2023-03-16T10:59:26;14.20;17.60
67050;DHT22;53955;52.442;13.284;2023-03-16T11:01:53;14.20;15.80
67050;DHT22;53955;52.442;13.284;2023-03-16T11:04:21;14.10;16.90
67050;DHT22;53955;52.442;13.284;2023-03-16T11:06:52;14.10;16.20
67050;DHT22;53955;52.442;13.284;2023-03-16T11:09:22;14.00;17.10
67050;DHT22;53955;52.442;13.284;2023-03-16T11:11:50;14.10;16.60
67050;DHT22;53955;52.442;13.284;2023-03-16T11:14:21;13.90;13.70
67050;DHT22;53955;52.442;13.284;2023-03-16T11:16:52;13.90;14.50
67050;DHT22;53955;52.442;13.284;2023-03-16T11:19:24;14.00;16.60
67050;DHT22;53955;52.442;13.284;2023-03-16T11:21:56;13.90;16.20
67050;DHT22;53955;52.442;13.284;2023-03-16T11:24:31;14.00;16.80
67050;DHT22;53955;52.442;13.284;2023-03-16T11:27:01;14.00;17.10
67050;DHT22;53955;52.442;13.284;2023-03-16T11:29:41;14.10;16.90
67050;DHT22;53955;52.442;13.284;2023-03-16T11:32:12;14.20;16.90
67050;DHT22;53955;52.442;13.284;2023-03-16T11:34:40;13.90;15.40
67050;DHT22;53955;52.442;13.284;2023-03-16T11:37:15;13.60;16.40
67050;DHT22;53955;52.442;13.284;2023-03-16T11:39:51;13.50;15.80
67050;DHT22;53955;52.442;13.284;2023-03-16T11:42:37;13.50;17.20
67050;DHT22;53955;52.442;13.284;2023-03-16T11:45:14;13.50;16.30
67050;DHT22;53955;52.442;13.284;2023-03-16T11:48:08;13.40;15.70
67050;DHT22;53955;52.442;13.284;2023-03-16T11:50:49;13.30;14.40
67050;DHT22;53955;52.442;13.284;2023-03-16T11:53:28;13.30;15.40
67050;DHT22;53955;52.442;13.284;2023-03-16T11:56:07;13.40;14.70
67050;DHT22;53955;52.442;13.284;2023-03-16T11:58:52;13.30;13.00
67050;DHT22;53955;52.442;13.284;2023-03-16T12:01:25;13.30;13.70
67050;DHT22;53955;52.442;13.284;2023-03-16T12:04:17;13.40;14.10
67050;DHT22;53955;52.442;13.284;2023-03-16T12:06:56;13.50;15.40
67050;DHT22;53955;52.442;13.284;2023-03-16T12:12:38;13.50;16.00
67050;DHT22;53955;52.442;13.284;2023-03-16T12:15:23;13.40;13.00
67050;DHT22;53955;52.442;13.284;2023-03-16T12:17:56;13.10;11.90
67050;DHT22;53955;52.442;13.284;2023-03-16T12:20:27;13.10;11.70
67050;DHT22;53955;52.442;13.284;2023-03-16T12:22:58;13.20;11.90
67050;DHT22;53955;52.442;13.284;2023-03-16T12:25:30;13.10;13.30
67050;DHT22;53955;52.442;13.284;2023-03-16T12:27:59;13.10;12.50
67050;DHT22;53955;52.442;13.284;2023-03-16T12:30:36;13.10;12.50
67050;DHT22;53955;52.442;13.284;2023-03-16T12:33:16;13.00;12.90
67050;DHT22;53955;52.442;13.284;2023-03-16T12:35:48;13.10;12.50
67050;DHT22;53955;52.442;13.284;2023-03-16T12:38:30;13.00;11.10
67050;DHT22;53955;52.442;13.284;2023-03-16T12:41:11;12.90;10.00
67050;DHT22;53955;52.442;13.284;2023-03-16T12:43:47;12.90;11.20
67050;DHT22;53955;52.442;13.284;2023-03-16T12:46:21;12.90;12.60
67050;DHT22;53955;52.442;13.284;2023-03-16T12:48:54;12.90;13.00
67050;DHT22;53955;52.442;13.284;2023-03-16T12:51:31;13.00;13.50
67050;DHT22;53955;52.442;13.284;2023-03-16T12:53:58;12.90;13.60
67050;DHT22;53955;52.442;13.284;2023-03-16T12:56:27;12.60;15.20
67050;DHT22;53955;52.442;13.284;2023-03-16T12:58:57;12.50;15.90
67050;DHT22;53955;52.442;13.284;2023-03-16T13:01:26;12.60;16.90
67050;DHT22;53955;52.442;13.284;2023-03-16T13:04:01;12.70;13.80
67050;DHT22;53955;52.442;13.284;2023-03-16T13:06:32;12.80;15.20
67050;DHT22;53955;52.442;13.284;2023-03-16T13:09:03;12.80;13.40
67050;DHT22;53955;52.442;13.284;2023-03-16T13:11:40;12.80;13.90
67050;DHT22;53955;52.442;13.284;2023-03-16T13:14:08;12.80;14.20
67050;DHT22;53955;52.442;13.284;2023-03-16T13:16:38;12.70;15.10
67050;DHT22;53955;52.442;13.284;2023-03-16T13:19:27;12.80;12.90
67050;DHT22;53955;52.442;13.284;2023-03-16T13:22:02;12.90;11.50
67050;DHT22;53955;52.442;13.284;2023-03-16T13:24:36;12.90;11.50
67050;DHT22;53955;52.442;13.284;2023-03-16T13:27:08;13.10;12.00
67050;DHT22;53955;52.442;13.284;2023-03-16T13:29:38;13.10;12.60
67050;DHT22;53955;52.442;13.284;2023-03-16T13:32:07;13.10;11.60
67050;DHT22;53955;52.442;13.284;2023-03-16T13:34:47;13.10;10.10
67050;DHT22;53955;52.442;13.284;2023-03-16T13:37:16;13.20;12.00
67050;DHT22;53955;52.442;13.284;2023-03-16T13:39:51;13.20;11.30
67050;DHT22;53955;52.442;13.284;2023-03-16T13:42:20;13.20;11.20
67050;DHT22;53955;52.442;13.284;2023-03-16T13:44:50;13.20;10.50
67050;DHT22;53955;52.442;13.284;2023-03-16T13:47:18;13.10;10.30
67050;DHT22;53955;52.442;13.284;2023-03-16T13:49:47;13.10;7.70
67050;DHT22;53955;52.442;13.284;2023-03-16T13:52:20;13.00;8.70
67050;DHT22;53955;52.442;13.284;2023-03-16T13:54:49;13.00;9.10
67050;DHT22;53955;52.442;13.284;2023-03-16T13:57:19;12.80;8.60
67050;DHT22;53955;52.442;13.284;2023-03-16T13:59:46;12.80;9.60
67050;DHT22;53955;52.442;13.284;2023-03-16T14:02:17;12.90;9.60
67050;DHT22;53955;52.442;13.284;2023-03-16T14:04:44;12.80;10.10
67050;DHT22;53955;52.442;13.284;2023-03-16T14:07:15;12.80;10.00
67050;DHT22;53955;52.442;13.284;2023-03-16T14:09:42;12.90;10.90
67050;DHT22;53955;52.442;13.284;2023-03-16T14:12:13;13.00;10.80
67050;DHT22;53955;52.442;13.284;2023-03-16T14:14:40;13.00;9.50
67050;DHT22;53955;52.442;13.284;2023-03-16T14:17:11;13.10;9.30
67050;DHT22;53955;52.442;13.284;2023-03-16T14:19:41;12.90;9.10
67050;DHT22;53955;52.442;13.284;2023-03-16T14:22:14;13.00;9.70
67050;DHT22;53955;52.442;13.284;2023-03-16T14:24:41;13.00;9.90
67050;DHT22;53955;52.442;13.284;2023-03-16T14:27:18;12.90;10.40
67050;DHT22;53955;52.442;13.284;2023-03-16T14:29:51;12.90;11.00
67050;DHT22;53955;52.442;13.284;2023-03-16T14:32:21;13.10;11.40
67050;DHT22;53955;52.442;13.284;2023-03-16T14:34:52;13.00;10.90
67050;DHT22;53955;52.442;13.284;2023-03-16T14:37:20;13.00;11.70
67050;DHT22;53955;52.442;13.284;2023-03-16T14:39:57;13.00;12.20
67050;DHT22;53955;52.442;13.284;2023-03-16T14:42:28;13.00;11.60
67050;DHT22;53955;52.442;13.284;2023-03-16T14:44:56;13.10;11.90
67050;DHT22;53955;52.442;13.284;2023-03-16T14:47:27;13.20;11.40
67050;DHT22;53955;52.442;13.284;2023-03-16T14:49:56;13.10;7.40
67050;DHT22;53955;52.442;13.284;2023-03-16T14:52:29;13.00;9.30
67050;DHT22;53955;52.442;13.284;2023-03-16T14:54:57;13.00;8.20
67050;DHT22;53955;52.442;13.284;2023-03-16T14:57:24;12.80;7.30
67050;DHT22;53955;52.442;13.284;2023-03-16T14:59:51;12.90;7.50
67050;DHT22;53955;52.442;13.284;2023-03-16T15:02:21;12.80;7.50
67050;DHT22;53955;52.442;13.284;2023-03-16T15:04:48;12.80;7.80
67050;DHT22;53955;52.442;13.284;2023-03-16T15:07:22;12.80;9.00
67050;DHT22;53955;52.442;13.284;2023-03-16T15:09:52;12.90;8.70
67050;DHT22;53955;52.442;13.284;2023-03-16T15:12:20;13.00;8.60
67050;DHT22;53955;52.442;13.284;2023-03-16T15:14:49;12.90;8.60
67050;DHT22;53955;52.442;13.284;2023-03-16T15:17:33;12.80;9.00
67050;DHT22;53955;52.442;13.284;2023-03-16T15:20:00;12.60;9.00
67050;DHT22;53955;52.442;13.284;2023-03-16T15:22:28;12.70;10.00
67050;DHT22;53955;52.442;13.284;2023-03-16T15:24:57;12.70;9.20
67050;DHT22;53955;52.442;13.284;2023-03-16T15:27:26;12.80;7.90
67050;DHT22;53955;52.442;13.284;2023-03-16T15:29:55;12.70;8.70
67050;DHT22;53955;52.442;13.284;2023-03-16T15:32:23;12.70;6.50
67050;DHT22;53955;52.442;13.284;2023-03-16T15:34:49;12.70;8.60
67050;DHT22;53955;52.442;13.284;2023-03-16T15:37:16;12.60;8.70
67050;DHT22;53955;52.442;13.284;2023-03-16T15:39:43;12.60;7.00
67050;DHT22;53955;52.442;13.284;2023-03-16T15:42:13;12.50;7.00
67050;DHT22;53955;52.442;13.284;2023-03-16T15:44:40;12.50;8.10